Pronóstico
Mapa Interactivo
Aviación
Climatología
Hidrometeorología
Agrometeorología
Estaciones Automáticas
Transparencia
OMM WMO
Portada
Institución
Noticias
Imágenes
Tsunami
Historial
Boletines y Alertas
Contactos
Buscar Contenidos
Informe del Tiempo

SANTO DOMINGO 19 DE AGOSTO DEL 2018                        

                                                                                                    AEROP. INT. LAS AMERICAS JFPG-  

 

 

 

FTDR31 MDSD 192200Z
TAF 

TAF MDPP 192200Z 2000/2100 09010KT 9999 FEW018 BECMG 2001/2003 00000KT=

TAF MDST 192200Z 2000/2100 12012KT 9999 SCT022

TAF MDPC 192200Z 2000/2100 07010KT 9999 SCT020 SCT080 PROB40 2000/2006 7000 TSRA FEW016CB BKN018 SCT070=

TAF MDBH 192200Z 2000/2100 13012KT 9999 FEW018CB SCT018 SCT300 BECMG 2008/2010 00000KT=

TAF MDJB 192200Z 2000/2100 00000KT 9999 SCT018 PROB30 2000/2004 8000 –RA BKN016 BECMG 2013/2015 04006KT=

TAF MDSD 192200Z 2000/2100 03008KT 9999 TS FEW018CB SCT019 PROB30 2001/2006 8000 -TSRA FEW017CB BKN017=

TAF MDLR 192200Z 2000/2100 00000KT 9999 SCT018 PROB30 2006/2012 8000 -TSSH FEW014CB BKN016 BECMG 2013/2015 09012KT TEMPO 2018/2023 7000 –TSRA FEW014CB BKN016 BKN070= 

TAF MDCY 192200Z 2000/2100 09014KT 9999 FEW018CB FEW020 SCT300 BECMG 2000/2002 00000KT PROB30 2002/2006 8000 -TSSH FEW016CB SCT018 BKN070=

 

MDPP AEROPUERTO INTERNACIONAL LA UNION PUERTO PLATA

MDST AEROPUERTO INTERNACIONAL DE SANTIAGO

MDPC AEROPUERTO INTERNACIONAL PUNTA CANA

MDBH AEROPUERTO INTERNACIONAL DE BARAHONA

MDJB AEROPUERTO INTERNACIONAL JOAQUIN BALAGUER

MDSD AEROPUERTO INTERNACIONAL LAS AMERICAS

MDLR AEROPUERTO INTERNACIONAL LA ROMANA

MDCY AEROPUERTO INTERNACIONAL DE CATEY

 

METAR MDPP// O.GUZMAN

METAR MDST// S.POLANCO

METAR MDPC// RIV

METAR MDBH// MENDEZ

METAR MDJB//CAPELLAN

METAR MDSD// H.MOTA

METAR MDLR// A.BERIHUETE

METAR MDCY// I.LARA